Time;durP1;ratioP1;P1;durP2;ratioP2;P2;SDS_P1;SDS_P2;PMS_P1;PMS_P2;Temp;Humidity;BMP_temperature;BMP_pressure;BME280_temperature;BME280_humidity;BME280_pressure;Samples;Min_cycle;Max_cycle;Signal;HPM_P1;HPM_P2
2021/12/27 00:01:36;;;;;;;0.90;0.90;;;;;;;;;;1845255;76;26259;-44
2021/12/27 00:04:03;;;;;;;0.80;0.80;;;;;;;;;;1841094;76;26292;-44
2021/12/27 00:06:30;;;;;;;1.10;1.10;;;;;;;;;;1809359;77;26223;-44
2021/12/27 00:08:58;;;;;;;1.00;1.00;;;;;;;;;;1806126;78;26249;-44
2021/12/27 00:11:25;;;;;;;1.05;0.90;;;;;;;;;;1843543;78;26359;-43
2021/12/27 00:13:54;;;;;;;0.90;0.90;;;;;;;;;;1910736;75;26294;-43
2021/12/27 00:16:21;;;;;;;0.72;0.72;;;;;;;;;;1884328;75;26322;-44
2021/12/27 00:18:48;;;;;;;0.82;0.82;;;;;;;;;;1880525;76;25288;-46
2021/12/27 00:21:16;;;;;;;0.90;0.90;;;;;;;;;;1906505;75;26269;-45
2021/12/27 00:23:43;;;;;;;0.90;0.90;;;;;;;;;;1888641;75;26246;-44
2021/12/27 00:26:10;;;;;;;0.95;0.95;;;;;;;;;;1882490;75;26266;-46
2021/12/27 00:28:38;;;;;;;0.90;0.90;;;;;;;;;;1909245;75;26271;-44
2021/12/27 00:31:05;;;;;;;0.75;0.75;;;;;;;;;;1901048;75;25222;-45
2021/12/27 00:33:32;;;;;;;0.88;0.88;;;;;;;;;;1910445;75;26803;-45
2021/12/27 00:36:00;;;;;;;0.80;0.80;;;;;;;;;;1899282;75;27270;-45
2021/12/27 00:38:27;;;;;;;0.80;0.80;;;;;;;;;;1881229;75;26761;-45
2021/12/27 00:40:54;;;;;;;0.80;0.80;;;;;;;;;;1888916;75;26184;-45
2021/12/27 00:43:21;;;;;;;0.80;0.80;;;;;;;;;;1909731;75;26271;-46
2021/12/27 00:45:49;;;;;;;0.80;0.80;;;;;;;;;;1875197;75;26230;-46
2021/12/27 00:48:17;;;;;;;0.80;0.78;;;;;;;;;;1884718;75;26305;-47
2021/12/27 00:50:45;;;;;;;0.80;0.80;;;;;;;;;;1884212;75;26277;-46
2021/12/27 00:53:12;;;;;;;1.95;0.80;;;;;;;;;;1880935;76;26835;-44
2021/12/27 00:55:40;;;;;;;0.80;0.80;;;;;;;;;;1880314;75;26356;-47
2021/12/27 00:58:07;;;;;;;0.80;0.80;;;;;;;;;;1880458;75;26382;-46
2021/12/27 01:00:35;;;;;;;0.72;0.72;;;;;;;;;;1880274;76;26429;-44
2021/12/27 01:03:03;;;;;;;0.70;0.70;;;;;;;;;;1877179;76;26309;-45
2021/12/27 01:05:30;;;;;;;0.82;0.82;;;;;;;;;;1883097;76;26239;-45
2021/12/27 01:07:57;;;;;;;0.75;0.75;;;;;;;;;;1882309;76;26250;-43
2021/12/27 01:11:36;;;;;;;8.85;0.90;;;;;;;;;;1882510;75;26955;-44
2021/12/27 01:13:20;;;;;;;0.60;0.60;;;;;;;;;;1844696;76;26352;-46
2021/12/27 01:18:04;;;;;;;0.60;0.60;;;;;;;;;;1886113;75;26300;-45
2021/12/27 01:20:31;;;;;;;0.70;0.70;;;;;;;;;;1875650;75;26288;-46
2021/12/27 01:22:59;;;;;;;0.72;0.72;;;;;;;;;;1877942;75;26196;-48
2021/12/27 01:25:26;;;;;;;0.60;0.60;;;;;;;;;;1880962;76;26249;-44
2021/12/27 01:27:54;;;;;;;0.60;0.60;;;;;;;;;;1880820;75;26733;-45
2021/12/27 01:30:22;;;;;;;0.70;0.70;;;;;;;;;;1877665;75;26291;-44
2021/12/27 01:32:58;;;;;;;0.80;0.80;;;;;;;;;;1880394;75;26240;-45
2021/12/27 01:35:23;;;;;;;0.62;0.62;;;;;;;;;;1879833;75;26311;-45
2021/12/27 01:37:51;;;;;;;0.70;0.70;;;;;;;;;;1875749;75;25940;-46
2021/12/27 01:40:19;;;;;;;0.70;0.70;;;;;;;;;;1880240;75;26270;-47
2021/12/27 01:43:03;;;;;;;2.83;0.80;;;;;;;;;;1872245;76;26323;-45
2021/12/27 01:45:30;;;;;;;0.68;0.68;;;;;;;;;;1875361;75;26591;-45
2021/12/27 01:47:58;;;;;;;0.62;0.62;;;;;;;;;;1865803;75;26312;-46
2021/12/27 01:50:25;;;;;;;0.70;0.70;;;;;;;;;;1879585;75;25222;-46
2021/12/27 01:52:52;;;;;;;0.70;0.70;;;;;;;;;;1868509;75;26196;-45
2021/12/27 01:55:20;;;;;;;0.62;0.62;;;;;;;;;;1868103;75;26213;-46
2021/12/27 01:57:48;;;;;;;0.70;0.70;;;;;;;;;;1876497;76;26761;-45
2021/12/27 02:00:16;;;;;;;0.53;0.53;;;;;;;;;;1882321;75;26318;-45
2021/12/27 02:02:44;;;;;;;0.55;0.55;;;;;;;;;;1907619;75;26709;-44
2021/12/27 02:05:12;;;;;;;0.50;0.50;;;;;;;;;;1886174;74;26309;-45
2021/12/27 02:07:39;;;;;;;0.60;0.60;;;;;;;;;;1878320;76;26250;-44
2021/12/27 02:10:08;;;;;;;0.60;0.60;;;;;;;;;;1889252;75;26236;-44
2021/12/27 02:12:35;;;;;;;0.80;0.80;;;;;;;;;;1881253;76;26701;-47
2021/12/27 02:15:08;;;;;;;0.60;0.60;;;;;;;;;;1891029;74;26316;-45
2021/12/27 02:17:34;;;;;;;0.60;0.60;;;;;;;;;;1888140;75;26304;-44
2021/12/27 02:20:01;;;;;;;0.70;0.70;;;;;;;;;;1882117;74;26323;-44
2021/12/27 02:22:33;;;;;;;0.60;0.60;;;;;;;;;;1888849;76;26261;-43
2021/12/27 02:24:57;;;;;;;0.57;0.57;;;;;;;;;;1873940;76;26397;-44
2021/12/27 02:27:25;;;;;;;0.80;0.80;;;;;;;;;;1883947;76;26234;-44
2021/12/27 02:29:52;;;;;;;0.75;0.75;;;;;;;;;;1888658;76;26242;-43
2021/12/27 02:32:19;;;;;;;0.57;0.57;;;;;;;;;;1892528;74;26246;-45
2021/12/27 02:34:47;;;;;;;1.67;0.70;;;;;;;;;;1902084;75;26287;-44
2021/12/27 02:37:14;;;;;;;0.60;0.60;;;;;;;;;;1888991;74;25788;-45
2021/12/27 02:39:41;;;;;;;0.57;0.57;;;;;;;;;;1866013;76;26723;-44
2021/12/27 02:42:08;;;;;;;0.50;0.50;;;;;;;;;;1877137;75;26316;-43
2021/12/27 02:44:36;;;;;;;0.53;0.53;;;;;;;;;;1888712;76;26238;-43
2021/12/27 02:47:04;;;;;;;0.57;0.57;;;;;;;;;;1893466;74;25681;-45
2021/12/27 02:49:31;;;;;;;0.50;0.50;;;;;;;;;;1889416;74;25614;-44
2021/12/27 02:51:58;;;;;;;0.65;0.65;;;;;;;;;;1890288;74;26754;-43
2021/12/27 02:54:27;;;;;;;0.50;0.50;;;;;;;;;;1888989;76;26254;-46
2021/12/27 02:56:54;;;;;;;0.30;0.30;;;;;;;;;;1894411;74;26722;-43
2021/12/27 02:59:21;;;;;;;0.50;0.50;;;;;;;;;;1889410;76;26363;-43
2021/12/27 03:01:49;;;;;;;0.50;0.50;;;;;;;;;;1884261;74;25269;-46
2021/12/27 03:04:16;;;;;;;0.50;0.50;;;;;;;;;;1883435;76;26214;-43
2021/12/27 03:06:43;;;;;;;0.60;0.60;;;;;;;;;;1885417;74;26269;-43
2021/12/27 03:09:10;;;;;;;0.60;0.60;;;;;;;;;;1876033;75;26250;-44
2021/12/27 03:11:38;;;;;;;0.40;0.40;;;;;;;;;;1884107;74;26224;-45
2021/12/27 03:14:05;;;;;;;0.50;0.50;;;;;;;;;;1890456;75;26360;-45
2021/12/27 03:16:32;;;;;;;0.50;0.50;;;;;;;;;;1893765;75;25756;-44
2021/12/27 03:18:59;;;;;;;0.50;0.50;;;;;;;;;;1889536;76;26281;-44
2021/12/27 03:21:28;;;;;;;0.50;0.50;;;;;;;;;;1895294;75;26721;-44
2021/12/27 03:23:55;;;;;;;1.00;0.53;;;;;;;;;;1889359;76;26211;-46
2021/12/27 03:26:23;;;;;;;0.60;0.60;;;;;;;;;;1882933;74;26777;-45
2021/12/27 03:28:50;;;;;;;0.90;0.60;;;;;;;;;;1895328;74;26386;-45
2021/12/27 03:31:19;;;;;;;0.53;0.53;;;;;;;;;;1908612;74;26254;-45
2021/12/27 03:33:46;;;;;;;0.50;0.50;;;;;;;;;;1864355;76;26273;-44
2021/12/27 03:36:14;;;;;;;0.60;0.60;;;;;;;;;;1880653;74;26270;-46
2021/12/27 03:38:43;;;;;;;0.42;0.42;;;;;;;;;;1876248;76;26262;-44
2021/12/27 03:41:14;;;;;;;0.60;0.60;;;;;;;;;;1883310;74;26308;-44
2021/12/27 03:43:42;;;;;;;0.40;0.40;;;;;;;;;;1882488;74;26266;-44
2021/12/27 03:46:09;;;;;;;0.50;0.50;;;;;;;;;;1888842;76;26261;-44
2021/12/27 03:48:37;;;;;;;0.53;0.53;;;;;;;;;;1870150;76;26349;-45
2021/12/27 03:51:06;;;;;;;0.70;0.70;;;;;;;;;;1886717;74;25256;-45
2021/12/27 03:53:34;;;;;;;0.47;0.47;;;;;;;;;;1881387;76;26526;-45
2021/12/27 03:56:02;;;;;;;0.53;0.53;;;;;;;;;;1895966;74;26772;-44
2021/12/27 03:58:45;;;;;;;0.50;0.50;;;;;;;;;;1897107;75;26338;-46
2021/12/27 04:01:17;;;;;;;0.40;0.40;;;;;;;;;;1885798;74;26260;-43
2021/12/27 04:03:45;;;;;;;0.40;0.40;;;;;;;;;;1882841;75;26356;-45
2021/12/27 04:06:14;;;;;;;0.53;0.53;;;;;;;;;;1897528;74;27211;-44
2021/12/27 04:08:42;;;;;;;0.42;0.42;;;;;;;;;;1889785;75;26304;-44
2021/12/27 04:11:10;;;;;;;0.50;0.50;;;;;;;;;;1893577;74;26269;-45
2021/12/27 04:13:37;;;;;;;1.47;0.50;;;;;;;;;;1884731;75;26756;-45
2021/12/27 04:16:05;;;;;;;0.50;0.50;;;;;;;;;;1872219;74;26253;-44
2021/12/27 04:18:32;;;;;;;0.50;0.50;;;;;;;;;;1884863;76;26245;-43
2021/12/27 04:20:59;;;;;;;0.50;0.50;;;;;;;;;;1898426;74;26338;-45
2021/12/27 04:23:27;;;;;;;0.47;0.47;;;;;;;;;;1889984;76;26732;-45
2021/12/27 04:25:54;;;;;;;0.57;0.57;;;;;;;;;;1880485;74;26279;-45
2021/12/27 04:28:22;;;;;;;0.40;0.40;;;;;;;;;;1905387;75;25225;-46
2021/12/27 04:30:49;;;;;;;0.47;0.47;;;;;;;;;;1897385;75;26265;-43
2021/12/27 04:33:17;;;;;;;0.50;0.50;;;;;;;;;;1889374;74;26250;-43
2021/12/27 04:35:44;;;;;;;0.50;0.50;;;;;;;;;;1892525;74;26267;-44
2021/12/27 04:38:11;;;;;;;0.50;0.50;;;;;;;;;;1884332;74;26289;-47
2021/12/27 04:40:40;;;;;;;0.50;0.50;;;;;;;;;;1877612;75;26209;-44
2021/12/27 04:43:08;;;;;;;0.50;0.50;;;;;;;;;;1889991;76;26230;-43
2021/12/27 04:45:36;;;;;;;0.40;0.40;;;;;;;;;;1887478;75;26201;-43
2021/12/27 04:48:04;;;;;;;0.42;0.42;;;;;;;;;;1889739;76;26270;-43
2021/12/27 04:50:32;;;;;;;0.40;0.40;;;;;;;;;;1885877;74;26201;-45
2021/12/27 04:52:59;;;;;;;1.37;0.47;;;;;;;;;;1889781;74;26308;-45
2021/12/27 04:55:27;;;;;;;0.50;0.50;;;;;;;;;;1889096;76;26262;-45
2021/12/27 04:57:54;;;;;;;0.50;0.50;;;;;;;;;;1891546;75;26678;-45
2021/12/27 05:00:22;;;;;;;0.53;0.53;;;;;;;;;;1877381;74;26231;-44
2021/12/27 05:02:49;;;;;;;0.50;0.50;;;;;;;;;;1882096;76;26242;-44
2021/12/27 05:05:16;;;;;;;0.50;0.50;;;;;;;;;;1871592;75;26286;-44
2021/12/27 05:07:48;;;;;;;0.50;0.50;;;;;;;;;;1864764;76;26420;-44
2021/12/27 05:10:13;;;;;;;0.50;0.50;;;;;;;;;;1869000;75;26396;-43
2021/12/27 05:12:41;;;;;;;0.50;0.50;;;;;;;;;;1880054;76;26223;-43
2021/12/27 05:15:08;;;;;;;0.40;0.40;;;;;;;;;;1875391;75;26196;-44
2021/12/27 05:17:36;;;;;;;0.40;0.40;;;;;;;;;;1878693;76;26775;-44
2021/12/27 05:20:05;;;;;;;0.40;0.40;;;;;;;;;;1869741;75;26762;-43
2021/12/27 05:22:33;;;;;;;0.57;0.57;;;;;;;;;;1880246;75;26754;-46
2021/12/27 05:25:00;;;;;;;0.50;0.50;;;;;;;;;;1886328;75;26304;-44
2021/12/27 05:27:27;;;;;;;0.42;0.42;;;;;;;;;;1879483;75;26756;-45
2021/12/27 05:29:55;;;;;;;0.42;0.42;;;;;;;;;;1880241;75;26257;-45
2021/12/27 05:32:22;;;;;;;0.47;0.42;;;;;;;;;;1869814;75;26256;-43
2021/12/27 05:34:49;;;;;;;0.40;0.40;;;;;;;;;;1866214;76;26230;-43
2021/12/27 05:37:16;;;;;;;0.50;0.50;;;;;;;;;;1880662;75;26772;-44
2021/12/27 05:39:44;;;;;;;0.40;0.40;;;;;;;;;;1869096;76;25277;-45
2021/12/27 05:42:11;;;;;;;0.50;0.50;;;;;;;;;;1875546;75;26273;-44
2021/12/27 05:44:39;;;;;;;0.47;0.47;;;;;;;;;;1881019;76;26254;-45
2021/12/27 05:47:06;;;;;;;0.40;0.40;;;;;;;;;;1881062;76;26319;-49
2021/12/27 05:49:33;;;;;;;0.50;0.50;;;;;;;;;;1879613;75;25779;-45
2021/12/27 05:52:00;;;;;;;0.50;0.50;;;;;;;;;;1879879;75;26326;-44
2021/12/27 05:54:28;;;;;;;0.40;0.40;;;;;;;;;;1879769;76;26280;-45
2021/12/27 05:56:55;;;;;;;0.55;0.50;;;;;;;;;;1879472;75;26806;-45
2021/12/27 05:59:22;;;;;;;0.42;0.42;;;;;;;;;;1881308;75;25318;-44
2021/12/27 06:01:50;;;;;;;0.57;0.57;;;;;;;;;;1889757;75;26727;-44
2021/12/27 06:04:17;;;;;;;0.40;0.40;;;;;;;;;;1871816;76;26241;-45
2021/12/27 06:06:44;;;;;;;1.35;0.55;;;;;;;;;;1877268;75;26366;-43
2021/12/27 06:09:11;;;;;;;0.40;0.40;;;;;;;;;;1882728;75;26261;-44
2021/12/27 06:11:39;;;;;;;0.45;0.45;;;;;;;;;;1883050;75;26226;-45
2021/12/27 06:14:06;;;;;;;0.40;0.40;;;;;;;;;;1879564;75;25710;-45
2021/12/27 06:16:34;;;;;;;0.47;0.47;;;;;;;;;;1879700;75;26242;-46
2021/12/27 06:19:01;;;;;;;0.30;0.30;;;;;;;;;;1882483;75;26278;-44
2021/12/27 06:21:30;;;;;;;0.33;0.33;;;;;;;;;;1880324;75;26308;-44
2021/12/27 06:23:58;;;;;;;0.50;0.50;;;;;;;;;;1879512;76;26254;-45
2021/12/27 06:26:25;;;;;;;0.50;0.50;;;;;;;;;;1881744;75;26308;-43
2021/12/27 06:28:52;;;;;;;0.40;0.40;;;;;;;;;;1876802;75;26534;-44
2021/12/27 06:31:20;;;;;;;0.40;0.40;;;;;;;;;;1882492;75;26195;-45
2021/12/27 06:33:47;;;;;;;0.30;0.30;;;;;;;;;;1878894;75;26320;-44
2021/12/27 06:36:15;;;;;;;0.30;0.30;;;;;;;;;;1882699;75;26324;-44
2021/12/27 06:38:43;;;;;;;0.68;0.30;;;;;;;;;;1878731;76;26330;-46
2021/12/27 06:41:10;;;;;;;0.40;0.40;;;;;;;;;;1878666;75;26242;-44
2021/12/27 06:43:37;;;;;;;0.40;0.40;;;;;;;;;;1879595;76;26277;-45
2021/12/27 06:46:05;;;;;;;0.35;0.35;;;;;;;;;;1880832;75;26765;-44
2021/12/27 06:48:32;;;;;;;0.40;0.40;;;;;;;;;;1879445;76;26718;-44
2021/12/27 06:50:59;;;;;;;3.72;0.50;;;;;;;;;;1883017;75;25209;-44
2021/12/27 06:53:31;;;;;;;0.30;0.30;;;;;;;;;;1879804;75;26310;-47
2021/12/27 06:55:56;;;;;;;0.50;0.50;;;;;;;;;;1875182;75;26371;-46
2021/12/27 06:58:23;;;;;;;0.30;0.30;;;;;;;;;;1882164;75;26311;-44
2021/12/27 07:00:51;;;;;;;0.50;0.50;;;;;;;;;;1875215;75;26785;-43
2021/12/27 07:03:19;;;;;;;0.40;0.40;;;;;;;;;;1875244;76;26188;-49
2021/12/27 07:05:48;;;;;;;0.50;0.50;;;;;;;;;;1879791;74;26282;-48
2021/12/27 07:08:16;;;;;;;0.35;0.35;;;;;;;;;;1879305;76;26738;-45
2021/12/27 07:10:44;;;;;;;0.35;0.35;;;;;;;;;;1882564;75;26289;-49
2021/12/27 07:13:11;;;;;;;0.40;0.40;;;;;;;;;;1876101;75;26343;-45
2021/12/27 07:15:41;;;;;;;0.72;0.50;;;;;;;;;;1880816;75;26192;-47
2021/12/27 07:18:09;;;;;;;0.45;0.45;;;;;;;;;;1879917;76;26348;-45
2021/12/27 07:20:37;;;;;;;0.35;0.35;;;;;;;;;;1882131;75;26588;-46
2021/12/27 07:23:05;;;;;;;0.30;0.30;;;;;;;;;;1884537;75;26317;-45
2021/12/27 07:25:32;;;;;;;0.30;0.30;;;;;;;;;;1875489;75;26213;-44
2021/12/27 07:27:59;;;;;;;0.40;0.40;;;;;;;;;;1880378;75;26363;-45
2021/12/27 07:30:29;;;;;;;0.40;0.40;;;;;;;;;;1879858;75;26294;-48
2021/12/27 07:32:57;;;;;;;0.40;0.40;;;;;;;;;;1874722;76;26289;-43
2021/12/27 07:35:24;;;;;;;0.50;0.50;;;;;;;;;;1879142;75;26514;-45
2021/12/27 07:37:52;;;;;;;0.37;0.37;;;;;;;;;;1870687;75;26278;-45
2021/12/27 07:40:19;;;;;;;0.20;0.20;;;;;;;;;;1875437;75;26687;-44
2021/12/27 07:42:46;;;;;;;0.37;0.37;;;;;;;;;;1886276;75;26317;-44
2021/12/27 07:45:14;;;;;;;0.40;0.40;;;;;;;;;;1879167;76;26292;-45
2021/12/27 07:47:41;;;;;;;0.40;0.40;;;;;;;;;;1878570;76;26238;-45
2021/12/27 07:50:09;;;;;;;0.30;0.30;;;;;;;;;;1878989;75;26715;-47
2021/12/27 07:52:36;;;;;;;0.45;0.45;;;;;;;;;;1876656;76;26254;-45
2021/12/27 07:55:04;;;;;;;0.40;0.40;;;;;;;;;;1879078;75;26705;-45
2021/12/27 07:57:32;;;;;;;0.30;0.30;;;;;;;;;;1881795;75;26306;-47
2021/12/27 08:00:00;;;;;;;1.17;0.40;;;;;;;;;;1879045;76;26258;-45
2021/12/27 08:02:27;;;;;;;0.25;0.25;;;;;;;;;;1879086;75;26219;-48
2021/12/27 08:04:55;;;;;;;0.40;0.40;;;;;;;;;;1879699;76;26371;-45
2021/12/27 08:07:22;;;;;;;0.40;0.40;;;;;;;;;;1885449;75;26309;-46
2021/12/27 08:09:50;;;;;;;0.55;0.40;;;;;;;;;;1881747;75;26267;-45
2021/12/27 08:12:17;;;;;;;0.30;0.30;;;;;;;;;;1882397;75;26324;-45
2021/12/27 08:14:45;;;;;;;1.40;0.50;;;;;;;;;;1876032;75;26288;-46
2021/12/27 08:17:12;;;;;;;0.40;0.40;;;;;;;;;;1878045;75;26200;-44
2021/12/27 08:19:40;;;;;;;0.33;0.33;;;;;;;;;;1874880;76;26394;-45
2021/12/27 08:22:07;;;;;;;1.55;0.35;;;;;;;;;;1874111;76;26902;-46
2021/12/27 08:24:35;;;;;;;0.40;0.40;;;;;;;;;;1879542;75;26259;-46
2021/12/27 08:27:03;;;;;;;1.07;0.42;;;;;;;;;;1877733;75;26278;-48
2021/12/27 08:29:30;;;;;;;0.40;0.40;;;;;;;;;;1875069;75;26390;-46
2021/12/27 08:31:59;;;;;;;0.40;0.40;;;;;;;;;;1876175;75;26253;-47
2021/12/27 08:34:27;;;;;;;0.50;0.50;;;;;;;;;;1878578;75;26364;-45
2021/12/27 08:36:55;;;;;;;1.02;0.37;;;;;;;;;;1877868;75;26267;-47
2021/12/27 08:39:22;;;;;;;0.40;0.40;;;;;;;;;;1878426;76;26270;-46
2021/12/27 08:41:49;;;;;;;0.45;0.45;;;;;;;;;;1877444;75;26263;-46
2021/12/27 08:44:17;;;;;;;0.40;0.40;;;;;;;;;;1875323;76;26324;-44
2021/12/27 08:46:44;;;;;;;0.40;0.40;;;;;;;;;;1880779;75;26765;-43
2021/12/27 08:49:11;;;;;;;1.65;0.60;;;;;;;;;;1876829;75;26294;-45
2021/12/27 08:51:39;;;;;;;2.55;0.50;;;;;;;;;;1877666;75;26698;-44
2021/12/27 08:54:07;;;;;;;0.78;0.40;;;;;;;;;;1878080;76;26305;-46
2021/12/27 08:56:34;;;;;;;0.37;0.37;;;;;;;;;;1877917;75;26258;-49
2021/12/27 08:59:01;;;;;;;0.50;0.50;;;;;;;;;;1878761;74;26689;-46
2021/12/27 09:01:29;;;;;;;1.02;0.50;;;;;;;;;;1876073;75;26191;-45
2021/12/27 09:03:56;;;;;;;0.90;0.40;;;;;;;;;;1877948;75;26255;-46
2021/12/27 09:06:24;;;;;;;1.42;0.37;;;;;;;;;;1882075;75;25750;-44
2021/12/27 09:08:51;;;;;;;1.10;0.30;;;;;;;;;;1886748;75;26377;-44
2021/12/27 09:11:19;;;;;;;0.50;0.50;;;;;;;;;;1888244;74;26345;-44
2021/12/27 09:13:46;;;;;;;0.50;0.50;;;;;;;;;;1887611;75;26219;-45
2021/12/27 09:16:13;;;;;;;1.27;0.50;;;;;;;;;;1886061;74;25639;-47
2021/12/27 09:18:40;;;;;;;0.40;0.40;;;;;;;;;;1889150;74;26312;-47
2021/12/27 09:21:08;;;;;;;0.80;0.35;;;;;;;;;;1887249;74;26234;-44
2021/12/27 09:23:35;;;;;;;0.47;0.47;;;;;;;;;;1888157;74;26304;-46
2021/12/27 09:26:03;;;;;;;0.50;0.50;;;;;;;;;;1881501;75;26319;-45
2021/12/27 09:28:30;;;;;;;0.20;0.20;;;;;;;;;;1888274;75;26249;-44
2021/12/27 09:30:58;;;;;;;1.35;0.40;;;;;;;;;;1889329;76;26288;-44
2021/12/27 09:33:26;;;;;;;0.30;0.28;;;;;;;;;;1884431;76;27371;-45
2021/12/27 09:35:54;;;;;;;1.35;0.30;;;;;;;;;;1890635;74;26274;-45
2021/12/27 09:38:21;;;;;;;1.12;0.45;;;;;;;;;;1889601;74;27380;-44
2021/12/27 09:40:48;;;;;;;1.52;0.50;;;;;;;;;;1890707;74;26270;-46
2021/12/27 09:43:16;;;;;;;0.60;0.60;;;;;;;;;;1888354;76;26265;-44
2021/12/27 09:45:43;;;;;;;1.57;0.57;;;;;;;;;;1886773;75;26347;-46
2021/12/27 09:48:13;;;;;;;0.50;0.50;;;;;;;;;;1886873;76;26227;-45
2021/12/27 09:50:41;;;;;;;0.65;0.65;;;;;;;;;;1884829;74;26357;-45
2021/12/27 09:53:09;;;;;;;1.87;0.55;;;;;;;;;;1875736;76;26231;-45
2021/12/27 09:55:37;;;;;;;1.02;0.60;;;;;;;;;;1889181;76;26303;-46
2021/12/27 09:58:05;;;;;;;3.80;0.72;;;;;;;;;;1889307;74;26307;-45
2021/12/27 10:00:36;;;;;;;0.82;0.60;;;;;;;;;;1887782;74;26629;-46
2021/12/27 10:03:03;;;;;;;2.87;0.75;;;;;;;;;;1888197;76;26341;-44
2021/12/27 10:05:32;;;;;;;1.45;0.78;;;;;;;;;;1888849;75;25803;-44
2021/12/27 10:08:01;;;;;;;2.47;0.68;;;;;;;;;;1883867;75;26934;-46
2021/12/27 10:10:30;;;;;;;1.25;0.55;;;;;;;;;;1887960;74;25729;-44
2021/12/27 10:12:57;;;;;;;0.62;0.50;;;;;;;;;;1887605;76;25741;-46
2021/12/27 10:15:26;;;;;;;0.80;0.60;;;;;;;;;;1886499;74;26286;-47
2021/12/27 10:17:53;;;;;;;1.17;0.57;;;;;;;;;;1883681;74;26292;-44
2021/12/27 10:20:24;;;;;;;1.95;0.40;;;;;;;;;;1883116;75;26328;-45
2021/12/27 10:22:53;;;;;;;0.95;0.57;;;;;;;;;;1886632;76;25607;-44
2021/12/27 10:25:22;;;;;;;1.25;0.65;;;;;;;;;;1885223;74;26245;-45
2021/12/27 10:27:53;;;;;;;3.98;0.65;;;;;;;;;;1885405;74;26218;-45
2021/12/27 10:30:24;;;;;;;2.40;0.60;;;;;;;;;;1888119;74;26596;-47
2021/12/27 10:33:10;;;;;;;0.90;0.70;;;;;;;;;;1883391;74;26795;-45
2021/12/27 10:35:42;;;;;;;0.82;0.55;;;;;;;;;;1886052;76;26336;-45
2021/12/27 10:38:24;;;;;;;0.60;0.50;;;;;;;;;;1877890;74;26333;-45
2021/12/27 10:40:50;;;;;;;0.70;0.53;;;;;;;;;;1881422;76;26215;-45
2021/12/27 10:43:18;;;;;;;1.40;0.72;;;;;;;;;;1887207;76;26250;-46
2021/12/27 10:45:47;;;;;;;2.95;0.88;;;;;;;;;;1883852;76;26207;-46
2021/12/27 10:48:22;;;;;;;0.85;0.60;;;;;;;;;;1881869;76;25264;-46
2021/12/27 10:50:49;;;;;;;0.90;0.50;;;;;;;;;;1888400;75;27314;-47
2021/12/27 10:53:17;;;;;;;1.45;0.75;;;;;;;;;;1886993;76;26295;-46
2021/12/27 10:55:46;;;;;;;0.93;0.55;;;;;;;;;;1883491;76;26211;-47
2021/12/27 10:58:18;;;;;;;1.67;0.53;;;;;;;;;;1879692;76;26313;-47
2021/12/27 11:00:46;;;;;;;0.40;0.40;;;;;;;;;;1880799;76;26319;-45
2021/12/27 11:03:23;;;;;;;1.42;0.50;;;;;;;;;;1887919;76;27626;-46
2021/12/27 11:05:50;;;;;;;1.12;0.50;;;;;;;;;;1887178;76;26261;-44
2021/12/27 11:08:18;;;;;;;2.08;0.55;;;;;;;;;;1888176;76;26639;-46
2021/12/27 11:10:46;;;;;;;2.20;0.60;;;;;;;;;;1887175;76;26234;-45
2021/12/27 11:13:14;;;;;;;2.22;0.60;;;;;;;;;;1887992;76;26338;-47
2021/12/27 11:15:42;;;;;;;0.45;0.45;;;;;;;;;;1887773;76;26286;-46
2021/12/27 11:18:12;;;;;;;2.17;0.70;;;;;;;;;;1883607;76;27155;-47
2021/12/27 11:20:41;;;;;;;0.80;0.60;;;;;;;;;;1887995;76;26231;-46
2021/12/27 11:23:09;;;;;;;0.53;0.53;;;;;;;;;;1887645;76;26308;-46
2021/12/27 11:25:38;;;;;;;2.30;1.12;;;;;;;;;;1888069;76;26270;-46
2021/12/27 11:28:06;;;;;;;0.72;0.65;;;;;;;;;;1887868;76;26282;-46
2021/12/27 11:30:35;;;;;;;1.22;0.60;;;;;;;;;;1888164;76;27332;-46
2021/12/27 11:33:08;;;;;;;1.32;0.70;;;;;;;;;;1887807;76;26222;-48
2021/12/27 11:35:37;;;;;;;2.62;0.68;;;;;;;;;;1882531;76;26379;-46
2021/12/27 11:38:05;;;;;;;1.40;0.42;;;;;;;;;;1882849;76;26266;-46
2021/12/27 11:40:42;;;;;;;1.17;0.60;;;;;;;;;;1885662;75;26663;-47
2021/12/27 11:43:10;;;;;;;0.40;0.40;;;;;;;;;;1886284;75;25229;-47
2021/12/27 11:45:48;;;;;;;0.70;0.70;;;;;;;;;;1887355;75;26797;-46
2021/12/27 11:48:16;;;;;;;0.47;0.47;;;;;;;;;;1885970;75;27030;-45
2021/12/27 11:51:00;;;;;;;5.85;0.60;;;;;;;;;;1886533;76;25288;-49
2021/12/27 11:53:29;;;;;;;0.60;0.60;;;;;;;;;;1885817;76;26239;-44
2021/12/27 11:55:57;;;;;;;0.75;0.50;;;;;;;;;;1886210;76;26242;-46
2021/12/27 11:58:37;;;;;;;0.50;0.50;;;;;;;;;;1887622;74;26787;-47
2021/12/27 12:01:06;;;;;;;2.17;0.68;;;;;;;;;;1884331;76;26302;-46
2021/12/27 12:03:38;;;;;;;1.35;0.60;;;;;;;;;;1883858;76;26235;-47
2021/12/27 12:06:06;;;;;;;1.32;0.70;;;;;;;;;;1888065;76;26369;-45
2021/12/27 12:08:41;;;;;;;0.60;0.60;;;;;;;;;;1888984;76;26733;-45
2021/12/27 12:11:10;;;;;;;0.60;0.60;;;;;;;;;;1876556;76;26251;-46
2021/12/27 12:13:47;;;;;;;1.77;0.62;;;;;;;;;;1884495;75;26450;-46
2021/12/27 12:16:15;;;;;;;1.07;0.60;;;;;;;;;;1887779;75;26379;-48
2021/12/27 12:18:44;;;;;;;2.20;0.60;;;;;;;;;;1886717;75;26363;-46
2021/12/27 12:21:31;;;;;;;0.53;0.53;;;;;;;;;;1883125;75;26325;-45
2021/12/27 12:23:59;;;;;;;0.78;0.60;;;;;;;;;;1886314;75;26290;-46
2021/12/27 12:26:28;;;;;;;0.85;0.60;;;;;;;;;;1885341;76;26250;-45
2021/12/27 12:29:00;;;;;;;1.25;0.70;;;;;;;;;;1882709;75;26701;-45
2021/12/27 12:31:29;;;;;;;1.07;0.72;;;;;;;;;;1884324;75;26251;-45
2021/12/27 12:33:58;;;;;;;0.60;0.60;;;;;;;;;;1887224;75;26243;-45
2021/12/27 12:36:26;;;;;;;1.87;0.72;;;;;;;;;;1884625;75;26261;-45
2021/12/27 12:38:54;;;;;;;0.70;0.70;;;;;;;;;;1879649;76;26234;-45
2021/12/27 12:41:22;;;;;;;0.60;0.60;;;;;;;;;;1884705;76;26267;-45
2021/12/27 12:43:54;;;;;;;0.80;0.80;;;;;;;;;;1888193;76;26215;-46
2021/12/27 12:46:25;;;;;;;0.55;0.55;;;;;;;;;;1878664;76;26262;-46
2021/12/27 12:49:00;;;;;;;1.47;0.60;;;;;;;;;;1883608;76;26731;-45
2021/12/27 12:51:35;;;;;;;0.65;0.60;;;;;;;;;;1886656;76;26278;-46
2021/12/27 12:54:03;;;;;;;0.60;0.60;;;;;;;;;;1881378;76;26649;-48
2021/12/27 12:56:32;;;;;;;0.60;0.60;;;;;;;;;;1883553;76;26819;-47
2021/12/27 12:59:00;;;;;;;3.02;0.82;;;;;;;;;;1881307;75;26258;-45
2021/12/27 13:01:27;;;;;;;0.60;0.60;;;;;;;;;;1885376;76;26293;-45
2021/12/27 13:03:59;;;;;;;2.95;0.70;;;;;;;;;;1877369;76;26725;-46
2021/12/27 13:06:28;;;;;;;0.70;0.70;;;;;;;;;;1882561;76;26258;-45
2021/12/27 13:08:57;;;;;;;1.87;0.50;;;;;;;;;;1888958;76;27533;-45
2021/12/27 13:11:25;;;;;;;0.50;0.50;;;;;;;;;;1886735;76;26377;-46
2021/12/27 13:13:59;;;;;;;0.50;0.50;;;;;;;;;;1888118;75;26442;-47
2021/12/27 13:16:27;;;;;;;0.50;0.50;;;;;;;;;;1887843;76;26239;-45
2021/12/27 13:18:55;;;;;;;0.90;0.50;;;;;;;;;;1881412;76;26294;-48
2021/12/27 13:21:22;;;;;;;1.12;0.40;;;;;;;;;;1877941;75;26839;-46
2021/12/27 13:23:50;;;;;;;0.88;0.80;;;;;;;;;;1875391;76;26249;-47
2021/12/27 13:26:18;;;;;;;2.98;1.02;;;;;;;;;;1863216;76;26347;-46
2021/12/27 13:28:47;;;;;;;2.35;1.90;;;;;;;;;;1886292;76;26264;-47
2021/12/27 13:31:15;;;;;;;4.75;2.30;;;;;;;;;;1887611;75;26264;-45
2021/12/27 13:33:44;;;;;;;3.33;2.37;;;;;;;;;;1889109;75;27344;-46
2021/12/27 13:36:13;;;;;;;3.72;2.85;;;;;;;;;;1887227;75;26277;-45
2021/12/27 13:38:43;;;;;;;7.55;3.05;;;;;;;;;;1883711;76;26335;-46
2021/12/27 13:41:12;;;;;;;4.72;3.20;;;;;;;;;;1886118;76;26309;-45
2021/12/27 13:43:47;;;;;;;6.62;3.60;;;;;;;;;;1882441;76;26316;-45
2021/12/27 13:46:15;;;;;;;7.15;3.10;;;;;;;;;;1883744;76;26421;-47
2021/12/27 13:48:43;;;;;;;8.60;3.67;;;;;;;;;;1869276;76;26317;-45
2021/12/27 13:51:11;;;;;;;6.35;3.77;;;;;;;;;;1860226;76;26344;-44
2021/12/27 13:53:39;;;;;;;6.05;3.50;;;;;;;;;;1884877;75;26271;-46
2021/12/27 13:56:07;;;;;;;6.58;3.52;;;;;;;;;;1880057;76;26249;-46
2021/12/27 13:58:36;;;;;;;9.03;3.80;;;;;;;;;;1884016;76;26311;-45
2021/12/27 14:01:04;;;;;;;7.67;3.80;;;;;;;;;;1881444;75;25370;-45
2021/12/27 14:03:33;;;;;;;6.72;3.72;;;;;;;;;;1884906;76;26250;-45
2021/12/27 14:06:02;;;;;;;7.62;3.47;;;;;;;;;;1884215;76;26255;-47
2021/12/27 14:08:31;;;;;;;4.85;3.42;;;;;;;;;;1887054;76;26372;-45
2021/12/27 14:11:02;;;;;;;6.85;4.10;;;;;;;;;;1887854;76;26341;-45
2021/12/27 14:13:48;;;;;;;6.00;3.40;;;;;;;;;;1887283;75;26392;-45
2021/12/27 14:16:22;;;;;;;8.13;3.40;;;;;;;;;;1883017;75;26243;-45
2021/12/27 14:19:04;;;;;;;4.67;3.08;;;;;;;;;;1885086;75;26230;-45
2021/12/27 14:21:36;;;;;;;5.28;3.50;;;;;;;;;;1886352;76;26572;-47
2021/12/27 14:24:05;;;;;;;4.33;3.25;;;;;;;;;;1883539;76;26320;-45
2021/12/27 14:26:33;;;;;;;6.22;3.10;;;;;;;;;;1885306;76;26238;-47
2021/12/27 14:29:19;;;;;;;5.10;3.00;;;;;;;;;;1887083;76;26239;-45
2021/12/27 14:31:48;;;;;;;4.25;3.08;;;;;;;;;;1884334;76;26191;-47
2021/12/27 14:34:16;;;;;;;6.90;3.15;;;;;;;;;;1883864;76;26327;-46
2021/12/27 14:36:50;;;;;;;9.15;3.27;;;;;;;;;;1882809;75;26250;-46
2021/12/27 14:39:17;;;;;;;8.75;3.27;;;;;;;;;;1883342;76;26320;-46
2021/12/27 14:41:44;;;;;;;5.50;3.17;;;;;;;;;;1887224;76;25791;-45
2021/12/27 14:44:11;;;;;;;7.65;3.22;;;;;;;;;;1886875;76;26733;-45
2021/12/27 14:46:42;;;;;;;5.08;3.08;;;;;;;;;;1883209;76;26656;-46
2021/12/27 14:49:07;;;;;;;6.37;3.17;;;;;;;;;;1887486;76;26329;-45
2021/12/27 14:51:35;;;;;;;6.17;3.40;;;;;;;;;;1886018;76;26695;-45
2021/12/27 14:54:02;;;;;;;6.75;2.87;;;;;;;;;;1885227;75;26738;-45